Time;durP1;ratioP1;P1;durP2;ratioP2;P2;SDS_P1;SDS_P2;PMS_P1;PMS_P2;Temp;Humidity;BMP_temperature;BMP_pressure;BME280_temperature;BME280_humidity;BME280_pressure;Samples;Min_cycle;Max_cycle;Signal;HPM_P1;HPM_P2
2024/03/06 00:00:04;;;;;;;36.43;16.33;;;6.00;99.90;;;;;;5039236;28;20183;-53
2024/03/06 00:02:29;;;;;;;35.00;15.93;;;6.00;99.90;;;;;;5023145;28;20557;-57
2024/03/06 00:04:55;;;;;;;43.30;21.40;;;6.00;99.90;;;;;;5039120;28;20427;-55
2024/03/06 00:07:20;;;;;;;38.60;18.03;;;6.10;99.90;;;;;;5036868;28;20182;-56
2024/03/06 00:09:46;;;;;;;33.17;15.90;;;6.10;99.90;;;;;;5029668;28;20180;-54
2024/03/06 00:12:11;;;;;;;43.50;17.83;;;6.10;99.90;;;;;;5029457;28;20552;-51
2024/03/06 00:14:37;;;;;;;41.57;18.20;;;6.10;99.90;;;;;;5029405;28;20614;-54
2024/03/06 00:17:06;;;;;;;35.13;16.50;;;6.10;99.90;;;;;;5029055;28;20183;-51
2024/03/06 00:19:32;;;;;;;36.00;15.77;;;6.10;99.90;;;;;;5037215;28;20191;-52
2024/03/06 00:22:00;;;;;;;30.77;15.40;;;6.10;99.90;;;;;;5029046;28;20705;-52
2024/03/06 00:24:26;;;;;;;34.03;16.00;;;6.10;99.90;;;;;;5037258;28;20203;-52
2024/03/06 00:26:52;;;;;;;36.37;16.07;;;6.00;99.90;;;;;;5029031;28;20226;-51
2024/03/06 00:29:17;;;;;;;37.73;16.43;;;6.10;99.90;;;;;;5033237;28;20179;-54
2024/03/06 00:31:45;;;;;;;36.53;17.17;;;6.00;99.90;;;;;;5037718;28;20627;-54
2024/03/06 00:34:13;;;;;;;35.77;16.23;;;6.00;99.90;;;;;;5036047;28;20423;-50
2024/03/06 00:36:39;;;;;;;41.87;18.60;;;6.00;99.90;;;;;;5037805;28;20259;-51
2024/03/06 00:39:05;;;;;;;42.97;18.47;;;6.00;99.90;;;;;;5040630;28;20207;-55
2024/03/06 00:41:31;;;;;;;38.63;17.60;;;5.90;99.90;;;;;;5038765;28;20187;-51
2024/03/06 00:43:57;;;;;;;40.10;18.53;;;5.90;99.90;;;;;;5035382;28;20232;-51
2024/03/06 00:46:23;;;;;;;38.23;17.73;;;5.90;99.90;;;;;;5033018;28;20183;-51
2024/03/06 00:48:48;;;;;;;41.07;18.20;;;5.90;99.90;;;;;;5032594;28;20194;-52
2024/03/06 00:51:14;;;;;;;40.13;18.07;;;5.90;99.90;;;;;;5032708;28;20278;-51
2024/03/06 00:53:39;;;;;;;37.97;18.23;;;5.80;99.90;;;;;;5032878;28;20306;-53
2024/03/06 00:56:06;;;;;;;39.07;17.63;;;5.70;99.90;;;;;;5032845;28;20179;-52
2024/03/06 00:58:32;;;;;;;42.13;18.47;;;5.70;99.90;;;;;;5032360;28;20262;-52
2024/03/06 01:00:58;;;;;;;38.17;17.43;;;5.80;99.90;;;;;;5032571;28;20188;-54
2024/03/06 01:03:24;;;;;;;40.20;17.87;;;5.80;99.90;;;;;;5032824;28;20207;-54
2024/03/06 01:05:52;;;;;;;43.47;18.93;;;5.80;99.90;;;;;;5032553;28;20180;-55
2024/03/06 01:08:17;;;;;;;41.43;18.83;;;5.80;99.90;;;;;;5032021;28;20196;-51
2024/03/06 01:10:43;;;;;;;38.13;17.17;;;5.80;99.90;;;;;;5032775;28;20184;-51
2024/03/06 01:13:10;;;;;;;39.17;17.17;;;5.70;99.90;;;;;;5032667;28;20219;-52
2024/03/06 01:15:36;;;;;;;43.47;18.40;;;5.60;99.90;;;;;;5032769;28;20204;-56
2024/03/06 01:18:03;;;;;;;37.60;16.87;;;5.50;99.90;;;;;;5031789;28;20230;-54
2024/03/06 01:20:29;;;;;;;40.67;18.20;;;5.50;99.90;;;;;;5032334;28;20271;-52
2024/03/06 01:22:54;;;;;;;39.93;17.77;;;5.60;99.90;;;;;;5040936;28;20294;-54
2024/03/06 01:25:20;;;;;;;39.47;17.63;;;5.60;99.90;;;;;;5044150;28;20238;-55
2024/03/06 01:27:48;;;;;;;45.50;17.83;;;5.60;99.90;;;;;;5043346;28;20187;-52
2024/03/06 01:30:14;;;;;;;39.73;17.53;;;5.70;99.90;;;;;;5032474;28;20194;-55
2024/03/06 01:32:39;;;;;;;37.93;17.30;;;5.70;99.90;;;;;;5040050;28;20271;-50
2024/03/06 01:35:06;;;;;;;33.80;15.50;;;5.80;99.90;;;;;;5041804;28;20253;-51
2024/03/06 01:37:32;;;;;;;40.53;17.97;;;5.80;99.90;;;;;;5043300;28;20211;-51
2024/03/06 01:39:57;;;;;;;39.43;17.40;;;5.70;99.90;;;;;;5034446;28;20180;-51
2024/03/06 01:42:23;;;;;;;36.80;16.07;;;5.60;99.90;;;;;;5032165;28;20551;-51
2024/03/06 01:44:49;;;;;;;35.00;15.93;;;5.60;99.90;;;;;;5032086;28;20203;-54
2024/03/06 01:47:15;;;;;;;35.13;15.70;;;5.70;99.90;;;;;;5035111;28;20190;-51
2024/03/06 01:49:42;;;;;;;36.03;17.00;;;5.70;99.90;;;;;;5044535;28;20214;-50
2024/03/06 01:52:10;;;;;;;42.53;17.73;;;5.70;99.90;;;;;;5031570;28;20195;-51
2024/03/06 01:54:36;;;;;;;47.07;17.77;;;5.70;99.90;;;;;;5046196;28;20228;-54
2024/03/06 01:57:03;;;;;;;38.33;17.40;;;5.70;99.90;;;;;;5034943;28;20195;-53
2024/03/06 01:59:29;;;;;;;39.80;17.60;;;5.70;99.90;;;;;;5042885;28;20213;-53
2024/03/06 02:01:55;;;;;;;35.13;15.50;;;5.60;99.90;;;;;;5042726;28;20244;-51
2024/03/06 02:04:21;;;;;;;36.63;16.60;;;5.70;99.90;;;;;;5039735;28;20626;-57
2024/03/06 02:06:47;;;;;;;38.73;17.13;;;5.60;99.90;;;;;;5031494;28;20275;-52
2024/03/06 02:09:13;;;;;;;45.20;17.27;;;5.70;99.90;;;;;;5047583;28;20180;-52
2024/03/06 02:11:40;;;;;;;40.77;17.47;;;5.70;99.90;;;;;;5031499;28;20192;-52
2024/03/06 02:14:09;;;;;;;37.27;16.67;;;5.50;99.90;;;;;;5031261;28;20211;-53
2024/03/06 02:16:41;;;;;;;41.70;18.07;;;5.60;99.90;;;;;;5037280;28;20202;-54
2024/03/06 02:19:08;;;;;;;39.67;17.60;;;5.50;99.90;;;;;;5032106;28;20212;-53
2024/03/06 02:21:34;;;;;;;42.67;19.40;;;5.40;99.90;;;;;;5039604;28;20188;-51
2024/03/06 02:23:59;;;;;;;47.20;19.63;;;5.30;99.90;;;;;;5032257;28;20257;-55
2024/03/06 02:26:25;;;;;;;39.20;17.33;;;5.30;99.90;;;;;;5046306;28;20187;-54
2024/03/06 02:28:53;;;;;;;41.10;17.27;;;5.30;99.90;;;;;;5030752;28;20189;-53
2024/03/06 02:31:20;;;;;;;41.37;18.67;;;5.40;99.90;;;;;;5031149;28;20191;-54
2024/03/06 02:33:48;;;;;;;47.70;18.50;;;5.20;99.90;;;;;;5031185;28;20571;-53
2024/03/06 02:36:14;;;;;;;38.23;17.73;;;5.10;99.90;;;;;;5041959;28;20183;-57
2024/03/06 02:38:40;;;;;;;38.23;17.43;;;5.10;99.90;;;;;;5043892;28;20220;-55
2024/03/06 02:41:06;;;;;;;36.37;17.03;;;5.20;99.90;;;;;;5047451;28;20301;-52
2024/03/06 02:43:33;;;;;;;41.67;17.57;;;5.20;99.90;;;;;;5031026;28;20845;-55
2024/03/06 02:45:58;;;;;;;36.53;16.63;;;5.10;99.90;;;;;;5038981;28;20199;-52
2024/03/06 02:48:24;;;;;;;38.17;17.07;;;5.10;99.90;;;;;;5034583;28;20195;-53
2024/03/06 02:50:49;;;;;;;36.07;16.23;;;5.10;99.90;;;;;;5042246;28;20207;-55
2024/03/06 02:53:15;;;;;;;37.97;15.87;;;5.10;99.90;;;;;;5030167;28;20226;-52
2024/03/06 02:55:41;;;;;;;37.47;16.27;;;5.10;99.90;;;;;;5037566;28;20190;-55
2024/03/06 02:58:06;;;;;;;36.20;16.23;;;5.10;99.90;;;;;;5041310;28;20246;-54
2024/03/06 03:00:32;;;;;;;36.23;16.20;;;5.10;99.90;;;;;;5037187;28;20218;-54
2024/03/06 03:02:58;;;;;;;39.27;15.77;;;5.10;99.90;;;;;;5031052;28;20219;-54
2024/03/06 03:05:24;;;;;;;34.87;16.27;;;5.10;99.90;;;;;;5045959;28;20667;-53
2024/03/06 03:07:50;;;;;;;36.30;16.87;;;5.10;99.90;;;;;;5029806;28;20192;-53
2024/03/06 03:10:16;;;;;;;36.70;16.00;;;5.10;99.90;;;;;;5046736;28;20617;-55
2024/03/06 03:12:42;;;;;;;34.87;15.83;;;5.00;99.90;;;;;;5030355;28;20196;-56
2024/03/06 03:15:08;;;;;;;41.47;15.57;;;5.10;99.90;;;;;;5030190;28;20270;-54
2024/03/06 03:17:33;;;;;;;40.47;17.03;;;5.10;99.90;;;;;;5029518;28;20748;-54
2024/03/06 03:20:00;;;;;;;32.17;14.93;;;5.10;99.90;;;;;;5046580;28;20274;-53
2024/03/06 03:22:25;;;;;;;37.57;14.87;;;5.00;99.90;;;;;;5038318;28;20194;-57
2024/03/06 03:24:51;;;;;;;36.27;14.37;;;5.10;99.90;;;;;;5030405;28;20270;-56
2024/03/06 03:27:16;;;;;;;35.17;14.93;;;5.10;99.90;;;;;;5029921;28;20199;-53
2024/03/06 03:29:42;;;;;;;32.10;14.27;;;5.10;99.90;;;;;;5030142;28;20191;-51
2024/03/06 03:32:08;;;;;;;40.20;15.97;;;5.10;99.90;;;;;;5029910;28;20195;-52
2024/03/06 03:34:36;;;;;;;30.63;14.67;;;4.90;99.90;;;;;;5035569;28;20234;-52
2024/03/06 03:37:02;;;;;;;38.90;16.27;;;4.90;99.90;;;;;;5039853;28;20604;-53
2024/03/06 03:39:27;;;;;;;38.30;14.97;;;4.90;99.90;;;;;;5029312;28;20349;-53
2024/03/06 03:41:53;;;;;;;33.03;14.67;;;4.90;99.90;;;;;;5029766;28;20192;-51
2024/03/06 03:44:19;;;;;;;33.40;15.20;;;5.00;99.90;;;;;;5033120;28;20254;-52
2024/03/06 03:46:45;;;;;;;35.93;14.70;;;4.90;99.90;;;;;;5041174;28;20206;-55
2024/03/06 03:49:11;;;;;;;42.23;14.97;;;5.00;99.90;;;;;;5029954;28;20840;-56
2024/03/06 03:51:40;;;;;;;30.30;14.10;;;5.00;99.90;;;;;;5035500;28;20199;-53
2024/03/06 03:54:06;;;;;;;34.87;14.87;;;5.00;99.90;;;;;;5031147;28;20298;-52
2024/03/06 03:56:32;;;;;;;35.83;14.60;;;5.00;99.90;;;;;;5029485;28;20694;-53
2024/03/06 03:58:58;;;;;;;34.23;13.97;;;4.90;99.90;;;;;;5028736;28;20247;-51
2024/03/06 04:01:26;;;;;;;36.53;14.93;;;4.90;99.90;;;;;;5038019;28;20214;-52
2024/03/06 04:03:52;;;;;;;32.90;14.43;;;4.80;99.90;;;;;;5028609;28;20219;-53
2024/03/06 04:06:20;;;;;;;28.67;12.70;;;4.70;99.90;;;;;;5032642;28;20236;-51
2024/03/06 04:08:46;;;;;;;30.60;14.03;;;4.80;99.90;;;;;;5041591;28;20192;-51
2024/03/06 04:11:11;;;;;;;30.57;13.80;;;4.70;99.90;;;;;;5029180;28;20257;-53
2024/03/06 04:13:38;;;;;;;32.00;14.07;;;4.70;99.90;;;;;;5029246;28;20227;-54
2024/03/06 04:16:05;;;;;;;35.20;14.17;;;4.70;99.90;;;;;;5037424;28;20647;-51
2024/03/06 04:18:34;;;;;;;28.03;13.10;;;4.60;99.90;;;;;;5028908;28;20211;-52
2024/03/06 04:21:04;;;;;;;34.40;13.47;;;4.60;99.90;;;;;;5029122;28;20700;-56
2024/03/06 04:23:29;;;;;;;29.93;13.00;;;4.60;99.90;;;;;;5029357;28;20207;-56
2024/03/06 04:25:55;;;;;;;34.10;14.50;;;4.60;99.90;;;;;;5029155;28;20210;-52
2024/03/06 04:28:21;;;;;;;30.90;13.07;;;4.50;99.90;;;;;;5044919;28;20711;-51
2024/03/06 04:30:47;;;;;;;34.13;13.90;;;4.50;99.90;;;;;;5029371;28;20195;-52
2024/03/06 04:33:14;;;;;;;30.30;13.23;;;4.50;99.90;;;;;;5029048;28;20207;-51
2024/03/06 04:35:40;;;;;;;26.90;11.90;;;4.40;99.90;;;;;;5029289;28;20226;-51
2024/03/06 04:38:06;;;;;;;32.43;13.00;;;4.40;99.90;;;;;;5036747;28;20213;-56
2024/03/06 04:40:31;;;;;;;29.70;12.17;;;4.20;99.90;;;;;;5029124;28;20711;-54
2024/03/06 04:42:57;;;;;;;31.93;12.83;;;4.10;99.90;;;;;;5037227;28;20225;-54
2024/03/06 04:45:23;;;;;;;29.53;12.77;;;4.00;99.90;;;;;;5029003;28;20207;-51
2024/03/06 04:47:49;;;;;;;28.00;12.27;;;3.90;99.90;;;;;;5028594;28;20281;-52
2024/03/06 04:50:15;;;;;;;26.57;12.23;;;3.80;99.90;;;;;;5029128;28;20694;-51
2024/03/06 04:52:41;;;;;;;24.20;11.07;;;3.70;99.90;;;;;;5029238;28;20652;-52
2024/03/06 04:55:09;;;;;;;27.97;11.80;;;3.60;99.90;;;;;;5029050;28;20215;-52
2024/03/06 04:57:36;;;;;;;28.67;12.10;;;3.60;99.90;;;;;;5028631;28;20289;-53
2024/03/06 05:00:11;;;;;;;26.80;12.00;;;3.60;99.90;;;;;;5029198;28;20199;-51
2024/03/06 05:02:37;;;;;;;28.87;11.97;;;3.60;99.90;;;;;;5029219;28;20191;-55
2024/03/06 05:05:03;;;;;;;26.87;11.93;;;3.50;99.90;;;;;;5029150;28;20195;-56
2024/03/06 05:07:30;;;;;;;32.57;13.17;;;3.50;99.90;;;;;;5028040;28;20192;-52
2024/03/06 05:09:59;;;;;;;27.30;12.57;;;3.50;99.90;;;;;;5028936;28;20195;-52
2024/03/06 05:12:28;;;;;;;25.90;11.97;;;3.50;99.90;;;;;;5028988;28;20187;-57
2024/03/06 05:14:54;;;;;;;32.47;13.70;;;3.30;99.90;;;;;;5028875;28;20180;-51
2024/03/06 05:17:23;;;;;;;31.38;15.15;;;3.20;99.90;;;;;;5039661;28;20504;-54
2024/03/06 05:19:49;;;;;;;32.97;13.27;;;3.30;99.90;;;;;;5042627;28;21085;-52
2024/03/06 05:22:15;;;;;;;30.33;13.33;;;3.30;99.90;;;;;;5042101;28;20215;-56
2024/03/06 05:24:42;;;;;;;35.27;12.73;;;3.30;99.90;;;;;;5042176;28;20687;-51
2024/03/06 05:27:09;;;;;;;26.30;11.67;;;3.30;99.90;;;;;;5041074;28;20179;-54
2024/03/06 05:29:36;;;;;;;29.07;11.90;;;3.40;99.90;;;;;;5032115;28;20188;-56
2024/03/06 05:32:03;;;;;;;28.63;11.83;;;3.30;99.90;;;;;;5040588;28;20184;-53
2024/03/06 05:34:29;;;;;;;29.97;13.27;;;3.30;99.90;;;;;;5032312;28;20585;-55
2024/03/06 05:36:55;;;;;;;32.27;13.17;;;3.30;99.90;;;;;;5031976;28;20254;-53
2024/03/06 05:39:20;;;;;;;34.97;13.23;;;3.30;99.90;;;;;;5031633;28;20211;-56
2024/03/06 05:41:46;;;;;;;39.77;13.73;;;3.20;99.90;;;;;;5032600;28;20184;-51
2024/03/06 05:44:12;;;;;;;37.77;15.07;;;3.30;99.90;;;;;;5031878;28;20219;-54
2024/03/06 05:46:37;;;;;;;39.10;14.80;;;3.40;99.90;;;;;;5032069;28;20183;-52
2024/03/06 05:49:04;;;;;;;35.30;13.70;;;3.50;99.90;;;;;;5031629;28;20184;-53
2024/03/06 05:51:30;;;;;;;33.87;13.27;;;3.50;99.90;;;;;;5039969;28;20572;-51
2024/03/06 05:53:56;;;;;;;40.57;14.57;;;3.60;99.90;;;;;;5032079;28;20207;-53
2024/03/06 05:56:21;;;;;;;48.50;15.73;;;3.60;99.90;;;;;;5047823;28;20191;-53
2024/03/06 05:58:47;;;;;;;45.27;16.23;;;3.60;99.90;;;;;;5031322;28;20255;-56
2024/03/06 06:01:15;;;;;;;45.83;16.50;;;3.70;99.90;;;;;;5048226;28;20175;-52
2024/03/06 06:03:41;;;;;;;47.47;16.53;;;3.80;99.90;;;;;;5031538;28;20745;-52
2024/03/06 06:06:08;;;;;;;39.33;16.00;;;3.90;99.90;;;;;;5047751;28;20745;-53
2024/03/06 06:08:34;;;;;;;44.47;16.53;;;3.90;99.90;;;;;;5031372;28;20242;-51
2024/03/06 06:11:02;;;;;;;52.77;17.57;;;4.00;99.90;;;;;;5039984;28;20187;-53
2024/03/06 06:13:28;;;;;;;47.53;16.73;;;4.10;99.90;;;;;;5031373;28;20671;-56
2024/03/06 06:15:54;;;;;;;61.07;15.10;;;4.10;99.90;;;;;;5039443;28;20190;-53
2024/03/06 06:18:19;;;;;;;52.57;14.70;;;4.10;99.90;;;;;;5038020;28;20199;-55
2024/03/06 06:20:45;;;;;;;47.33;13.97;;;4.10;99.90;;;;;;5030135;28;20180;-57
2024/03/06 06:23:11;;;;;;;35.37;13.80;;;4.10;99.90;;;;;;5032780;28;20211;-55
2024/03/06 06:25:37;;;;;;;33.03;13.40;;;4.00;99.90;;;;;;5050617;28;20601;-55
2024/03/06 06:28:02;;;;;;;38.43;13.43;;;4.00;99.90;;;;;;5031345;28;20555;-52
2024/03/06 06:30:28;;;;;;;38.57;13.20;;;4.00;99.90;;;;;;5030653;28;20249;-54
2024/03/06 06:32:54;;;;;;;32.20;12.87;;;4.10;99.90;;;;;;5038641;28;20238;-53
2024/03/06 06:35:19;;;;;;;54.43;14.80;;;4.00;99.90;;;;;;5033675;28;20187;-56
2024/03/06 06:37:46;;;;;;;49.10;13.67;;;4.00;99.90;;;;;;5041245;28;20210;-55
2024/03/06 06:40:12;;;;;;;49.83;19.85;;;4.00;99.90;;;;;;5038360;28;20424;-55
2024/03/06 06:42:44;;;;;;;33.97;14.70;;;4.00;99.90;;;;;;5030252;28;20234;-53
2024/03/06 06:45:10;;;;;;;45.00;13.97;;;4.10;99.90;;;;;;5038451;28;20217;-56
2024/03/06 06:47:35;;;;;;;36.00;12.50;;;4.10;99.90;;;;;;5035146;28;20662;-56
2024/03/06 06:50:05;;;;;;;49.93;12.50;;;4.10;99.90;;;;;;5040844;28;20674;-51
2024/03/06 06:52:33;;;;;;;76.90;13.63;;;4.10;99.90;;;;;;5030026;28;20647;-53
2024/03/06 06:54:59;;;;;;;36.47;12.00;;;4.10;99.90;;;;;;5029737;28;20717;-51
2024/03/06 06:57:24;;;;;;;28.63;12.00;;;4.10;99.90;;;;;;5029045;28;20192;-53
2024/03/06 06:59:50;;;;;;;52.40;11.87;;;4.10;99.90;;;;;;5045918;28;20187;-55
2024/03/06 07:02:15;;;;;;;61.57;14.07;;;4.10;99.90;;;;;;5030257;28;20270;-51
2024/03/06 07:04:41;;;;;;;33.57;12.67;;;4.10;99.90;;;;;;5036045;28;20207;-51
2024/03/06 07:07:06;;;;;;;69.77;13.23;;;4.20;99.90;;;;;;5031331;28;20192;-53
2024/03/06 07:09:32;;;;;;;37.13;12.77;;;4.20;99.90;;;;;;5029402;28;20198;-53
2024/03/06 07:11:57;;;;;;;37.67;12.83;;;4.30;99.90;;;;;;5037678;28;20218;-50
2024/03/06 07:14:23;;;;;;;40.67;12.90;;;4.30;99.90;;;;;;5033427;28;20224;-51
2024/03/06 07:16:49;;;;;;;51.33;13.23;;;4.20;99.90;;;;;;5049333;28;20551;-53
2024/03/06 07:19:14;;;;;;;45.37;13.10;;;4.10;99.90;;;;;;5029717;28;20309;-55
2024/03/06 07:21:40;;;;;;;46.23;13.20;;;4.10;99.90;;;;;;5043878;28;20213;-50
2024/03/06 07:24:05;;;;;;;35.77;15.27;;;4.10;99.90;;;;;;5039582;28;20208;-51
2024/03/06 07:26:32;;;;;;;43.60;14.30;;;4.20;99.90;;;;;;5037539;28;20263;-51
2024/03/06 07:28:58;;;;;;;31.03;13.47;;;4.20;99.90;;;;;;5037276;28;20175;-55
2024/03/06 07:31:24;;;;;;;36.50;13.97;;;4.20;99.90;;;;;;5029308;28;20214;-55
2024/03/06 07:33:50;;;;;;;34.13;13.43;;;4.20;99.90;;;;;;5037688;28;20559;-55
2024/03/06 07:36:16;;;;;;;34.00;13.03;;;4.30;99.90;;;;;;5031786;28;20226;-53
2024/03/06 07:38:42;;;;;;;36.80;14.77;;;4.40;99.90;;;;;;5042128;28;20223;-51
2024/03/06 07:41:08;;;;;;;41.53;17.80;;;4.40;99.90;;;;;;5037353;28;20186;-53
2024/03/06 07:43:33;;;;;;;52.50;13.50;;;4.40;99.90;;;;;;5042518;28;20219;-51
2024/03/06 07:45:59;;;;;;;59.90;16.90;;;4.30;99.90;;;;;;5039961;28;20198;-51
2024/03/06 07:48:25;;;;;;;33.33;13.43;;;4.20;99.90;;;;;;5028645;28;20183;-53
2024/03/06 07:50:50;;;;;;;74.00;14.70;;;4.20;99.90;;;;;;5036683;28;20183;-52
2024/03/06 07:53:16;;;;;;;54.67;13.50;;;4.40;99.90;;;;;;5037614;28;20211;-50
2024/03/06 07:55:42;;;;;;;35.47;13.00;;;4.50;99.90;;;;;;5028893;28;20183;-53
2024/03/06 07:58:10;;;;;;;36.57;13.90;;;4.50;99.90;;;;;;5028252;28;20246;-55
2024/03/06 08:00:36;;;;;;;38.13;14.10;;;4.60;99.90;;;;;;5037075;28;20262;-51
2024/03/06 08:03:02;;;;;;;35.13;13.87;;;4.80;99.90;;;;;;5037073;28;20203;-54
2024/03/06 08:05:33;;;;;;;50.13;14.10;;;5.00;99.90;;;;;;5037285;28;20658;-51
2024/03/06 08:07:59;;;;;;;31.03;13.13;;;5.00;99.90;;;;;;5036063;28;20659;-50
2024/03/06 08:10:24;;;;;;;27.57;12.30;;;5.20;99.90;;;;;;5037100;28;20274;-50
2024/03/06 08:12:50;;;;;;;30.00;12.73;;;5.40;99.90;;;;;;5028667;28;20207;-50
2024/03/06 08:15:15;;;;;;;34.67;15.55;;;5.60;99.90;;;;;;5038344;28;20970;-52
2024/03/06 08:17:43;;;;;;;28.93;12.23;;;5.60;99.90;;;;;;5041828;28;20627;-54
2024/03/06 08:20:09;;;;;;;30.10;13.00;;;5.70;99.90;;;;;;5037412;28;20210;-51
2024/03/06 08:22:42;;;;;;;29.37;12.33;;;5.70;99.90;;;;;;5028763;28;20263;-53
2024/03/06 08:25:09;;;;;;;32.67;12.77;;;5.70;99.90;;;;;;5028529;28;20171;-52
2024/03/06 08:27:36;;;;;;;29.47;14.53;;;5.80;99.90;;;;;;5028299;28;20184;-50
2024/03/06 08:30:06;;;;;;;33.20;13.87;;;6.00;99.90;;;;;;5028855;28;20270;-50
2024/03/06 08:32:34;;;;;;;53.50;13.97;;;6.10;99.90;;;;;;5028455;28;20711;-51
2024/03/06 08:35:10;;;;;;;42.90;16.80;;;5.90;99.90;;;;;;5045380;28;20198;-55
2024/03/06 08:37:37;;;;;;;36.67;16.53;;;5.90;99.90;;;;;;5041988;28;20175;-51
2024/03/06 08:40:03;;;;;;;29.80;13.73;;;6.00;99.90;;;;;;5031838;28;20192;-51
2024/03/06 08:42:29;;;;;;;29.90;14.07;;;6.30;99.90;;;;;;5035921;28;20175;-50
2024/03/06 08:44:54;;;;;;;30.00;13.37;;;6.40;99.90;;;;;;5036916;28;20631;-50
2024/03/06 08:47:20;;;;;;;32.90;12.97;;;6.50;99.90;;;;;;5027818;28;20186;-53
2024/03/06 08:49:45;;;;;;;26.20;12.27;;;6.70;99.90;;;;;;5035274;28;20186;-51
2024/03/06 08:52:11;;;;;;;29.87;13.13;;;6.70;99.90;;;;;;5033800;28;20192;-51
2024/03/06 08:54:37;;;;;;;28.63;13.03;;;7.00;99.90;;;;;;5046548;28;20236;-55
2024/03/06 08:57:05;;;;;;;29.17;13.87;;;7.00;99.90;;;;;;5044083;28;20655;-52
2024/03/06 08:59:31;;;;;;;41.43;17.90;;;7.30;99.90;;;;;;5039211;28;20249;-55
2024/03/06 09:01:57;;;;;;;37.27;18.57;;;7.50;99.90;;;;;;5032790;28;20188;-57
2024/03/06 09:04:23;;;;;;;27.47;12.83;;;7.90;99.90;;;;;;5032486;28;20214;-51
2024/03/06 09:06:51;;;;;;;31.37;12.77;;;8.00;99.90;;;;;;5032193;28;20176;-50
2024/03/06 09:09:16;;;;;;;28.53;13.30;;;8.30;99.90;;;;;;5039802;28;20184;-52
2024/03/06 09:11:42;;;;;;;32.33;13.30;;;8.40;99.90;;;;;;5038528;28;20654;-53
2024/03/06 09:14:09;;;;;;;27.97;13.57;;;8.50;99.90;;;;;;5042056;28;20219;-52
2024/03/06 09:16:35;;;;;;;30.40;12.57;;;8.40;99.90;;;;;;5032068;28;20183;-55
2024/03/06 09:19:00;;;;;;;25.97;12.40;;;9.20;99.90;;;;;;5039954;28;20210;-54
2024/03/06 09:21:26;;;;;;;22.97;11.50;;;9.50;99.90;;;;;;5039364;28;20560;-53
2024/03/06 09:23:51;;;;;;;22.93;11.60;;;10.30;99.90;;;;;;5031747;28;20223;-52
2024/03/06 09:26:17;;;;;;;39.63;16.97;;;11.10;99.90;;;;;;5034696;28;20190;-52
2024/03/06 09:28:43;;;;;;;19.37;10.77;;;11.60;99.90;;;;;;5042964;28;20241;-53
2024/03/06 09:31:08;;;;;;;23.77;11.13;;;11.80;99.90;;;;;;5033552;28;20180;-55
2024/03/06 09:33:34;;;;;;;25.20;12.73;;;11.80;99.90;;;;;;5045264;28;20211;-54
2024/03/06 09:35:59;;;;;;;23.43;12.53;;;11.90;99.90;;;;;;5042617;28;20189;-60
2024/03/06 09:38:25;;;;;;;26.27;13.53;;;11.50;99.90;;;;;;5013086;28;20675;-54
2024/03/06 09:40:51;;;;;;;27.10;12.73;;;11.80;99.90;;;;;;5039109;28;20560;-56
2024/03/06 09:43:17;;;;;;;21.70;11.70;;;11.80;99.90;;;;;;5034781;28;20549;-52
2024/03/06 09:45:48;;;;;;;24.70;12.70;;;11.90;99.90;;;;;;5051345;28;20183;-55
2024/03/06 09:48:13;;;;;;;21.97;11.53;;;12.20;99.90;;;;;;5034228;28;20283;-54
2024/03/06 09:50:45;;;;;;;24.00;12.00;;;12.80;99.90;;;;;;5045695;28;20211;-53
2024/03/06 09:53:14;;;;;;;21.53;11.67;;;13.30;99.90;;;;;;5039136;28;20195;-54
2024/03/06 09:55:41;;;;;;;21.07;11.47;;;13.50;99.90;;;;;;5031587;28;20214;-53
2024/03/06 09:58:08;;;;;;;21.20;11.90;;;13.90;99.90;;;;;;5040284;28;20354;-54
2024/03/06 10:00:35;;;;;;;22.23;11.70;;;14.10;99.90;;;;;;5038022;28;20553;-55
2024/03/06 10:03:05;;;;;;;20.43;10.70;;;14.30;99.90;;;;;;5038075;28;20206;-54
2024/03/06 10:05:33;;;;;;;27.90;11.33;;;14.50;99.90;;;;;;5031172;28;20211;-54
2024/03/06 10:08:00;;;;;;;19.23;10.43;;;14.80;99.90;;;;;;5038258;28;20186;-52
2024/03/06 10:10:26;;;;;;;17.07;8.87;;;15.40;99.90;;;;;;5031270;28;20187;-56
2024/03/06 10:12:52;;;;;;;18.40;10.03;;;16.00;99.90;;;;;;5038744;28;20210;-53
2024/03/06 10:15:18;;;;;;;19.87;9.07;;;16.10;99.90;;;;;;5031408;28;20280;-50
2024/03/06 10:17:48;;;;;;;24.57;10.00;;;16.10;99.90;;;;;;5030290;28;20667;-51
2024/03/06 10:20:20;;;;;;;20.03;10.10;;;15.90;99.90;;;;;;5032972;28;20184;-54
2024/03/06 10:22:51;;;;;;;19.00;8.90;;;15.90;99.90;;;;;;5050689;28;21306;-54
2024/03/06 10:25:23;;;;;;;15.83;8.57;;;16.30;99.90;;;;;;5048333;28;20187;-52
2024/03/06 10:28:07;;;;;;;15.13;8.10;;;16.50;99.90;;;;;;5038707;28;20245;-52
2024/03/06 10:30:35;;;;;;;16.07;8.63;;;17.00;99.90;;;;;;5035495;28;20698;-53
2024/03/06 10:33:05;;;;;;;14.77;8.63;;;16.90;99.90;;;;;;5050289;28;20264;-51
2024/03/06 10:35:32;;;;;;;18.33;8.47;;;16.40;99.90;;;;;;5030961;28;20198;-54
2024/03/06 10:38:02;;;;;;;15.10;7.50;;;16.60;99.90;;;;;;5029933;28;20211;-55
2024/03/06 10:40:37;;;;;;;15.47;7.70;;;16.70;99.90;;;;;;5042237;28;20210;-55
2024/03/06 10:43:07;;;;;;;12.83;6.93;;;16.50;99.90;;;;;;5041438;28;20256;-52
2024/03/06 10:46:08;;;;;;;11.63;6.70;;;16.30;99.90;;;;;;5035144;28;20179;-51
2024/03/06 10:48:34;;;;;;;14.70;7.93;;;16.90;99.90;;;;;;5028225;28;20657;-52
2024/03/06 10:51:02;;;;;;;11.20;6.43;;;17.10;99.90;;;;;;5050016;28;20273;-55
2024/03/06 10:53:29;;;;;;;12.00;6.63;;;17.20;99.90;;;;;;5030141;28;20215;-56
2024/03/06 10:55:56;;;;;;;13.33;7.00;;;17.20;99.90;;;;;;5045952;28;20647;-52
2024/03/06 10:58:23;;;;;;;11.20;6.70;;;16.60;99.90;;;;;;5029715;28;20317;-55
2024/03/06 11:00:51;;;;;;;11.47;6.03;;;16.10;99.90;;;;;;5012393;28;20183;-53
2024/03/06 11:03:17;;;;;;;13.47;7.40;;;15.60;99.90;;;;;;5038083;28;20238;-55
2024/03/06 11:05:45;;;;;;;10.50;6.60;;;15.40;99.90;;;;;;5030063;28;20183;-56
2024/03/06 11:08:12;;;;;;;12.53;6.10;;;15.70;99.90;;;;;;5037362;28;20274;-52
2024/03/06 11:10:39;;;;;;;11.10;6.77;;;16.00;99.90;;;;;;5029958;28;20229;-50
2024/03/06 11:13:25;;;;;;;10.90;6.37;;;15.90;99.90;;;;;;5029506;28;20215;-51
2024/03/06 11:15:53;;;;;;;12.40;6.77;;;15.40;99.90;;;;;;5029860;28;20180;-52
2024/03/06 11:18:28;;;;;;;11.30;6.77;;;15.20;99.90;;;;;;5029137;28;20204;-54
2024/03/06 11:21:02;;;;;;;12.30;6.80;;;15.20;99.90;;;;;;5037530;28;20182;-51
2024/03/06 11:23:27;;;;;;;12.40;6.63;;;15.40;99.90;;;;;;5033631;28;20268;-54
2024/03/06 11:25:58;;;;;;;10.83;6.27;;;15.60;99.90;;;;;;5041548;28;20183;-53
2024/03/06 11:28:27;;;;;;;10.37;6.00;;;15.90;99.90;;;;;;5040672;28;20190;-51
2024/03/06 11:31:11;;;;;;;9.93;5.90;;;16.00;99.90;;;;;;5033888;28;20184;-54
2024/03/06 11:33:47;;;;;;;10.87;5.83;;;15.90;99.90;;;;;;5034841;28;20241;-53
2024/03/06 11:36:20;;;;;;;11.13;5.90;;;16.00;99.90;;;;;;5038933;28;20194;-56
2024/03/06 11:39:06;;;;;;;10.07;5.77;;;16.00;99.90;;;;;;5029073;28;20265;-52
2024/03/06 11:41:48;;;;;;;10.00;5.77;;;16.20;99.90;;;;;;5033676;28;20179;-51
2024/03/06 11:44:20;;;;;;;11.87;5.50;;;16.30;99.90;;;;;;5030752;28;20250;-51
2024/03/06 11:46:57;;;;;;;10.20;6.00;;;16.40;99.90;;;;;;5029242;28;20215;-53
2024/03/06 11:49:25;;;;;;;10.70;5.73;;;16.60;99.90;;;;;;5036952;28;20186;-52
2024/03/06 11:51:58;;;;;;;11.63;6.10;;;16.60;99.90;;;;;;5029580;28;20539;-51
2024/03/06 11:54:26;;;;;;;10.03;5.97;;;16.40;99.90;;;;;;5032348;28;20207;-52
2024/03/06 11:56:53;;;;;;;13.93;6.30;;;16.50;99.90;;;;;;5042105;28;20184;-54
2024/03/06 11:59:30;;;;;;;10.40;6.30;;;16.70;99.90;;;;;;5028537;28;20223;-56
2024/03/06 12:01:57;;;;;;;11.43;6.10;;;16.70;99.90;;;;;;5037767;28;20226;-53
2024/03/06 12:04:24;;;;;;;10.60;6.47;;;16.90;99.90;;;;;;5036995;28;20742;-52
2024/03/06 12:06:50;;;;;;;13.07;6.10;;;16.90;99.90;;;;;;5028974;28;20259;-56
2024/03/06 12:09:16;;;;;;;11.10;6.50;;;16.60;99.90;;;;;;5028457;28;20314;-54
2024/03/06 12:11:45;;;;;;;13.13;6.63;;;16.70;99.90;;;;;;5029198;28;20223;-54
2024/03/06 12:14:21;;;;;;;10.67;6.27;;;16.70;99.90;;;;;;5037016;28;20211;-53
2024/03/06 12:16:57;;;;;;;10.37;6.37;;;16.90;99.90;;;;;;5037421;28;20627;-52
2024/03/06 12:19:25;;;;;;;15.00;7.07;;;17.20;99.90;;;;;;5047958;28;20213;-52
2024/03/06 12:21:51;;;;;;;12.47;6.80;;;17.00;99.90;;;;;;5033755;28;20188;-51
2024/03/06 12:24:18;;;;;;;14.50;7.50;;;17.20;99.90;;;;;;5039017;28;20211;-52
2024/03/06 12:26:44;;;;;;;14.13;7.53;;;17.20;99.90;;;;;;5033657;28;20206;-53
2024/03/06 12:29:11;;;;;;;12.70;7.57;;;17.50;99.90;;;;;;5036352;28;20195;-54
2024/03/06 12:31:39;;;;;;;15.47;6.83;;;17.90;99.90;;;;;;5037092;28;20218;-55
2024/03/06 12:34:06;;;;;;;11.77;7.23;;;18.00;99.90;;;;;;5036036;28;20211;-55